NCAR-RAP Real-Time Weather Data

Output produced by METARs form (21 August 2014  14:02 UTC)
found at http://weather.rap.ucar.edu/surface/
 
Conditions at: KSDF observed 21 August 2014  13:56 UTC
Temperature: 24.4°C (76°F)
Dewpoint: 21.7°C (71°F) [RH = 85%]
Pressure (altimeter): 30.07 inches Hg (1018.4 mb)
[Sea-level pressure: 1017.6 mb]
Winds: from the SSW (210 degrees) at 10 MPH (9 knots; 4.7 m/s)
Visibility: 10 or more miles (16+ km)
Ceiling: 14000 feet AGL
Clouds: broken clouds at 14000 feet AGL
overcast cloud deck at 20000 feet AGL
Present Weather: no significant weather observed at this time
KSDF 211356Z 21009KT 10SM BKN140 OVC200 24/22 A3007 RMK AO2 SLP176 T02440217